createdAt,value
2018-09-05T00:01:10.588Z,99.13
2018-09-05T00:03:47.913Z,94.33
2018-09-05T00:06:21.648Z,108.93
2018-09-05T00:08:51.157Z,89.53
2018-09-05T00:14:17.608Z,103.40
2018-09-05T00:19:49.473Z,71.23
2018-09-05T00:22:22.285Z,76.13
2018-09-05T00:24:53.829Z,87.53
2018-09-05T00:27:27.125Z,73.43
2018-09-05T00:29:57.657Z,69.93
2018-09-05T00:32:45.853Z,83.37
2018-09-05T00:35:16.297Z,73.13
2018-09-05T00:40:51.813Z,63.90
2018-09-05T00:49:27.617Z,72.30
2018-09-05T00:54:55.694Z,67.97
2018-09-05T01:00:23.533Z,77.07
2018-09-05T01:02:53.034Z,91.50
2018-09-05T01:05:23.033Z,98.00
2018-09-05T01:07:59.969Z,103.70
2018-09-05T01:10:47.773Z,128.50
2018-09-05T01:13:18.309Z,169.43
2018-09-05T01:16:12.857Z,277.37
2018-09-05T01:18:42.392Z,142.80
2018-09-05T01:21:22.685Z,117.70
2018-09-05T01:23:54.573Z,101.17
2018-09-05T01:26:43.641Z,95.50
2018-09-05T01:32:15.117Z,106.30
2018-09-05T01:34:48.439Z,97.60
2018-09-05T01:37:23.653Z,100.83
2018-09-05T01:42:49.733Z,79.77
2018-09-05T01:45:31.297Z,79.33
2018-09-05T01:48:13.197Z,79.20
2018-09-05T01:50:48.178Z,119.80
2018-09-05T01:56:30.549Z,134.93
2018-09-05T01:59:00.049Z,131.93
2018-09-05T02:01:47.662Z,139.40
2018-09-05T02:04:20.175Z,86.37
2018-09-05T02:06:56.505Z,55.87
2018-09-05T02:09:37.338Z,95.97
2018-09-05T02:15:07.513Z,160.03
2018-09-05T02:17:47.398Z,170.10
2018-09-05T02:20:31.490Z,309.23
2018-09-05T02:29:15.277Z,252.23
2018-09-05T02:40:41.757Z,244.43
2018-09-05T02:43:29.713Z,236.47
2018-09-05T02:46:04.741Z,300.17
2018-09-05T02:48:42.297Z,220.57
2018-09-05T02:51:28.257Z,230.13
2018-09-05T02:54:16.273Z,194.13
2018-09-05T02:56:47.749Z,187.67
2018-09-05T02:59:35.784Z,225.83
2018-09-05T03:02:19.521Z,294.40
2018-09-05T03:04:49.032Z,254.73
2018-09-05T03:07:19.544Z,311.93
2018-09-05T03:09:49.053Z,255.13
2018-09-05T03:12:28.445Z,278.00
2018-09-05T03:15:19.172Z,280.50
2018-09-05T03:20:47.817Z,156.17
2018-09-05T03:23:36.058Z,181.00
2018-09-05T03:31:53.929Z,186.07
2018-09-05T03:34:28.669Z,198.97
2018-09-05T03:46:16.293Z,230.87
2018-09-05T03:48:49.001Z,221.70
2018-09-05T03:51:19.541Z,172.37
2018-09-05T03:53:59.265Z,230.67
2018-09-05T03:56:38.185Z,252.47
2018-09-05T03:59:18.677Z,205.13
2018-09-05T04:02:17.749Z,205.77
2018-09-05T04:04:58.149Z,219.10
2018-09-05T04:07:40.729Z,273.93
2018-09-05T04:13:09.044Z,133.57
2018-09-05T04:16:02.160Z,154.97
2018-09-05T04:18:33.665Z,231.97
2018-09-05T04:21:06.625Z,145.67
2018-09-05T04:23:46.849Z,199.17
2018-09-05T04:26:32.461Z,139.70
2018-09-05T04:29:16.002Z,211.00
2018-09-05T04:31:47.453Z,288.40
2018-09-05T04:37:17.785Z,169.33
2018-09-05T04:39:51.497Z,274.67
2018-09-05T04:42:45.961Z,169.93
2018-09-05T04:45:17.506Z,134.80
2018-09-05T04:47:46.945Z,406.80
2018-09-05T04:50:35.105Z,335.20
2018-09-05T04:53:08.877Z,198.53
2018-09-05T04:55:45.421Z,294.07
2018-09-05T05:01:14.869Z,108.00
2018-09-05T05:03:47.565Z,117.07
2018-09-05T05:06:18.721Z,126.07
2018-09-05T05:08:48.209Z,133.30
2018-09-05T05:11:22.527Z,248.20
2018-09-05T05:14:15.134Z,211.90
2018-09-05T05:17:02.698Z,229.47
2018-09-05T05:19:47.365Z,174.40
2018-09-05T05:25:18.297Z,155.73
2018-09-05T05:27:59.793Z,165.83
2018-09-05T05:30:47.325Z,121.77
2018-09-05T05:33:21.329Z,119.00
2018-09-05T05:35:56.677Z,129.13
2018-09-05T05:38:33.679Z,139.87
2018-09-05T05:41:16.170Z,144.67
2018-09-05T05:43:47.217Z,144.37
2018-09-05T05:46:16.713Z,120.40
2018-09-05T05:48:55.845Z,234.87
2018-09-05T05:51:33.301Z,224.17
2018-09-05T05:54:15.069Z,337.53
2018-09-05T05:56:46.677Z,302.03
2018-09-05T05:59:43.861Z,308.67
2018-09-05T06:02:13.373Z,288.87
2018-09-05T06:04:44.021Z,320.73
2018-09-05T06:07:39.737Z,338.07
2018-09-05T06:10:09.393Z,206.87
2018-09-05T06:12:46.381Z,217.47
2018-09-05T06:15:19.057Z,299.93
2018-09-05T06:17:58.267Z,326.17
2018-09-05T06:20:27.593Z,246.83
2018-09-05T06:23:04.377Z,166.23
2018-09-05T06:25:45.689Z,151.03
2018-09-05T06:28:15.136Z,114.90
2018-09-05T06:30:45.776Z,110.77
2018-09-05T06:33:15.165Z,106.97
2018-09-05T06:35:44.677Z,94.37
2018-09-05T06:38:32.130Z,76.90
2018-09-05T06:41:12.433Z,84.97
2018-09-05T06:43:43.898Z,70.70
2018-09-05T06:46:14.451Z,69.40
2018-09-05T06:48:47.625Z,75.80
2018-09-05T06:51:17.144Z,69.13
2018-09-05T06:53:46.589Z,60.60
2018-09-05T06:56:16.157Z,59.50
2018-09-05T06:58:46.605Z,67.83
2018-09-05T07:01:17.238Z,58.27
2018-09-05T07:03:46.761Z,62.80
2018-09-05T07:06:17.145Z,67.40
2018-09-05T07:08:53.081Z,51.77
2018-09-05T07:11:29.281Z,52.90
2018-09-05T07:13:59.826Z,52.87
2018-09-05T07:16:29.261Z,59.03
2018-09-05T07:18:58.825Z,53.77
2018-09-05T07:21:35.889Z,50.80
2018-09-05T07:24:07.829Z,55.63
2018-09-05T07:26:45.505Z,49.47
2018-09-05T07:29:20.789Z,43.10
2018-09-05T07:31:50.593Z,45.07
2018-09-05T07:34:27.117Z,49.40
2018-09-05T07:37:02.889Z,40.00
2018-09-05T07:39:44.896Z,38.27
2018-09-05T07:42:14.403Z,33.83
2018-09-05T07:44:54.109Z,37.63
2018-09-05T07:47:33.036Z,39.07
2018-09-05T07:50:16.166Z,33.53
2018-09-05T07:52:47.025Z,42.60
2018-09-05T07:55:20.260Z,32.30
2018-09-05T07:57:51.776Z,32.33
2018-09-05T08:00:22.489Z,30.80
2018-09-05T08:02:55.303Z,34.23
2018-09-05T08:05:24.976Z,30.43
2018-09-05T08:07:56.528Z,29.30
2018-09-05T08:10:27.992Z,32.47
2018-09-05T08:13:01.960Z,36.70
2018-09-05T08:15:36.000Z,32.53
2018-09-05T08:18:29.910Z,28.20
2018-09-05T08:21:03.397Z,40.40
2018-09-05T08:23:34.004Z,33.07
2018-09-05T08:26:05.492Z,33.00
2018-09-05T08:28:41.427Z,35.40
2018-09-05T08:34:09.325Z,31.83
2018-09-05T08:36:40.019Z,28.20
2018-09-05T08:39:12.516Z,34.57
2018-09-05T08:41:46.309Z,30.60
2018-09-05T08:44:19.660Z,33.20
2018-09-05T08:47:01.258Z,33.10
2018-09-05T08:49:40.412Z,29.47
2018-09-05T08:52:09.873Z,31.30
2018-09-05T08:54:39.528Z,35.67
2018-09-05T08:57:15.364Z,36.97
2018-09-05T08:59:46.732Z,35.63
2018-09-05T09:02:20.953Z,33.37
2018-09-05T09:04:51.593Z,35.87
2018-09-05T09:07:33.389Z,28.40
2018-09-05T09:10:26.409Z,33.30
2018-09-05T09:13:00.980Z,30.33
2018-09-05T09:15:48.817Z,28.20
2018-09-05T09:18:20.665Z,30.50
2018-09-05T09:20:59.845Z,31.20
2018-09-05T09:23:35.089Z,33.67
2018-09-05T09:26:06.997Z,36.47
2018-09-05T09:28:41.318Z,37.23
2018-09-05T09:31:14.325Z,36.80
2018-09-05T09:33:45.773Z,29.27
2018-09-05T09:36:34.170Z,35.80
2018-09-05T09:39:05.909Z,37.20
2018-09-05T09:41:38.645Z,31.43
2018-09-05T09:47:02.344Z,31.70
2018-09-05T09:49:43.833Z,31.20
2018-09-05T09:52:30.029Z,34.13
2018-09-05T09:55:11.637Z,28.97
2018-09-05T09:57:45.949Z,31.60
2018-09-05T10:00:22.890Z,33.70
2018-09-05T10:03:02.349Z,31.00
2018-09-05T10:05:38.312Z,30.50
2018-09-05T10:08:23.541Z,32.57
2018-09-05T10:11:16.893Z,34.90
2018-09-05T10:14:01.628Z,28.93
2018-09-05T10:16:36.497Z,30.70
2018-09-05T10:19:08.497Z,29.27
2018-09-05T10:21:46.077Z,30.20
2018-09-05T10:24:38.577Z,31.03
2018-09-05T10:27:12.381Z,27.87
2018-09-05T10:29:49.389Z,32.93
2018-09-05T10:32:28.109Z,28.93
2018-09-05T10:35:04.176Z,27.70
2018-09-05T10:37:45.137Z,27.80
2018-09-05T10:40:15.901Z,30.70
2018-09-05T10:42:46.527Z,29.20
2018-09-05T10:45:16.229Z,27.93
2018-09-05T10:47:46.765Z,28.03
2018-09-05T10:50:16.268Z,30.17
2018-09-05T10:52:45.717Z,29.93
2018-09-05T10:55:15.488Z,28.83
2018-09-05T10:57:45.025Z,36.57
2018-09-05T11:00:17.761Z,27.53
2018-09-05T11:02:47.349Z,37.50
2018-09-05T11:05:20.953Z,30.47
2018-09-05T11:08:02.316Z,30.20
2018-09-05T11:10:35.912Z,26.60
2018-09-05T11:13:15.101Z,27.07
2018-09-05T11:15:44.580Z,26.10
2018-09-05T11:18:16.029Z,27.67
2018-09-05T11:20:45.485Z,25.70
2018-09-05T11:23:16.056Z,27.63
2018-09-05T11:25:45.500Z,30.47
2018-09-05T11:28:33.293Z,28.03
2018-09-05T11:31:03.857Z,21.00
2018-09-05T11:33:40.200Z,17.33
2018-09-05T11:36:11.657Z,17.27
2018-09-05T11:38:44.552Z,21.03
2018-09-05T11:41:16.029Z,22.53
2018-09-05T11:43:45.480Z,23.20
2018-09-05T11:46:15.000Z,31.60
2018-09-05T11:48:44.537Z,26.73
2018-09-05T11:51:14.032Z,27.87
2018-09-05T11:53:44.468Z,29.90
2018-09-05T11:56:30.129Z,34.03
2018-09-05T11:58:59.896Z,28.00
2018-09-05T12:01:31.456Z,24.37
2018-09-05T12:04:01.916Z,24.07
2018-09-05T12:06:31.388Z,33.67
2018-09-05T12:09:11.044Z,36.10
2018-09-05T12:11:45.218Z,26.63
2018-09-05T12:14:15.600Z,36.03
2018-09-05T12:16:45.042Z,29.57
2018-09-05T12:19:15.486Z,31.40
2018-09-05T12:21:50.896Z,32.00
2018-09-05T12:24:30.528Z,29.67
2018-09-05T12:27:12.080Z,31.00
2018-09-05T12:29:44.488Z,41.10
2018-09-05T12:32:14.037Z,28.40
2018-09-05T12:34:43.740Z,26.10
2018-09-05T12:37:18.369Z,29.63
2018-09-05T12:39:51.370Z,31.00
2018-09-05T12:42:20.898Z,27.80
2018-09-05T12:44:52.336Z,25.00
2018-09-05T12:47:23.056Z,29.60
2018-09-05T12:50:04.968Z,31.67
2018-09-05T12:52:34.459Z,25.83
2018-09-05T12:55:10.200Z,30.17
2018-09-05T12:57:45.944Z,27.00
2018-09-05T13:00:19.164Z,29.30
2018-09-05T13:02:48.600Z,33.87
2018-09-05T13:05:19.320Z,28.30
2018-09-05T13:07:48.880Z,31.07
2018-09-05T13:10:19.444Z,31.83
2018-09-05T13:12:54.684Z,35.27
2018-09-05T13:15:24.248Z,31.93
2018-09-05T13:17:54.688Z,30.70
2018-09-05T13:20:42.912Z,26.50
2018-09-05T13:23:17.172Z,32.90
2018-09-05T13:25:52.504Z,29.63
2018-09-05T13:28:30.869Z,32.97
2018-09-05T13:31:09.312Z,30.60
2018-09-05T13:33:42.100Z,33.53
2018-09-05T13:36:30.101Z,28.17
2018-09-05T13:39:20.285Z,27.07
2018-09-05T13:42:01.488Z,30.70
2018-09-05T13:44:32.037Z,28.90
2018-09-05T13:47:07.939Z,30.60
2018-09-05T13:49:37.477Z,26.23
2018-09-05T13:55:02.236Z,28.77
2018-09-05T13:57:32.756Z,28.90
2018-09-05T14:00:07.333Z,22.17
2018-09-05T14:02:43.564Z,23.40
2018-09-05T14:05:17.855Z,19.93
2018-09-05T14:07:47.315Z,22.50
2018-09-05T14:10:22.660Z,15.30
2018-09-05T14:12:54.136Z,30.37
2018-09-05T14:15:26.727Z,15.50
2018-09-05T14:17:56.221Z,14.80
2018-09-05T14:20:31.403Z,23.63
2018-09-05T14:23:02.008Z,17.63
2018-09-05T14:25:48.124Z,14.20
2018-09-05T14:28:17.800Z,21.23
2018-09-05T14:30:48.308Z,17.30
2018-09-05T14:33:23.144Z,15.50
2018-09-05T14:35:56.236Z,18.17
2018-09-05T14:38:26.776Z,13.70
2018-09-05T14:40:56.256Z,16.73
2018-09-05T14:43:44.805Z,12.63
2018-09-05T14:46:18.616Z,15.70
2018-09-05T14:49:04.820Z,18.00
2018-09-05T14:51:44.264Z,17.47
2018-09-05T14:54:22.187Z,14.70
2018-09-05T14:56:51.661Z,15.27
2018-09-05T14:59:22.253Z,15.67
2018-09-05T15:01:56.449Z,14.67
2018-09-05T15:04:26.337Z,18.20
2018-09-05T15:06:59.844Z,15.40
2018-09-05T15:09:30.324Z,13.17
2018-09-05T15:12:09.865Z,15.83
2018-09-05T15:14:44.208Z,20.97
2018-09-05T15:17:15.768Z,16.63
2018-09-05T15:19:47.212Z,17.90
2018-09-05T15:22:16.720Z,18.20
2018-09-05T15:24:52.516Z,15.80
2018-09-05T15:27:42.729Z,17.30
2018-09-05T15:30:28.424Z,16.40
2018-09-05T15:33:10.420Z,16.63
2018-09-05T15:35:44.160Z,14.77
2018-09-05T15:38:13.736Z,16.60
2018-09-05T15:40:45.511Z,16.30
2018-09-05T15:43:19.723Z,19.07
2018-09-05T15:45:50.445Z,18.00
2018-09-05T15:48:24.340Z,18.00
2018-09-05T15:51:01.947Z,18.50
2018-09-05T15:53:31.648Z,19.17
2018-09-05T15:56:19.844Z,19.73
2018-09-05T16:01:34.088Z,18.13
2018-09-05T16:04:11.840Z,20.23
2018-09-05T16:06:41.296Z,27.50
2018-09-05T16:09:12.823Z,21.30
2018-09-05T16:11:42.336Z,21.53
2018-09-05T16:14:12.016Z,24.17
2018-09-05T16:16:41.712Z,20.03
2018-09-05T16:19:17.076Z,23.27
2018-09-05T16:22:03.247Z,23.80
2018-09-05T16:24:42.380Z,20.43
2018-09-05T16:27:11.904Z,19.93
2018-09-05T16:29:43.378Z,19.90
2018-09-05T16:32:12.868Z,23.00
2018-09-05T16:34:42.381Z,21.23
2018-09-05T16:37:15.770Z,21.90
2018-09-05T16:39:57.019Z,19.47
2018-09-05T16:42:26.544Z,20.10
2018-09-05T16:45:12.025Z,22.63
2018-09-05T16:47:41.736Z,23.73
2018-09-05T16:50:14.836Z,25.33
2018-09-05T16:52:44.280Z,20.20
2018-09-05T16:55:13.874Z,20.83
2018-09-05T16:57:43.492Z,21.03
2018-09-05T17:00:23.224Z,23.50
2018-09-05T17:03:03.375Z,24.03
2018-09-05T17:05:32.952Z,24.23
2018-09-05T17:08:02.605Z,24.47
2018-09-05T17:10:35.648Z,25.60
2018-09-05T17:13:05.331Z,21.30
2018-09-05T17:15:35.062Z,29.73
2018-09-05T17:18:10.429Z,26.80
2018-09-05T17:20:43.376Z,19.77
2018-09-05T17:23:17.824Z,41.33
2018-09-05T17:25:47.581Z,20.33
2018-09-05T17:28:17.415Z,32.83
2018-09-05T17:30:47.128Z,27.60
2018-09-05T17:33:17.816Z,28.23
2018-09-05T17:35:49.524Z,27.00
2018-09-05T17:38:27.096Z,27.20
2018-09-05T17:41:03.976Z,27.30
2018-09-05T17:43:33.408Z,36.30
2018-09-05T17:46:08.024Z,30.13
2018-09-05T17:48:37.736Z,28.73
2018-09-05T17:51:15.780Z,28.53
2018-09-05T17:53:50.944Z,31.83
2018-09-05T17:56:25.339Z,27.87
2018-09-05T17:59:07.655Z,30.00
2018-09-05T18:01:42.869Z,30.80
2018-09-05T18:04:14.407Z,28.13
2018-09-05T18:06:43.992Z,30.80
2018-09-05T18:12:09.852Z,29.00
2018-09-05T18:14:41.536Z,40.03
2018-09-05T18:17:10.828Z,28.03
2018-09-05T18:19:42.360Z,43.13
2018-09-05T18:22:13.895Z,27.60
2018-09-05T18:24:43.947Z,35.97
2018-09-05T18:27:13.412Z,30.30
2018-09-05T18:29:42.960Z,29.03
2018-09-05T18:32:12.460Z,33.97
2018-09-05T18:34:42.976Z,40.13
2018-09-05T18:37:17.409Z,36.23
2018-09-05T18:39:53.916Z,36.03
2018-09-05T18:42:25.403Z,31.53
2018-09-05T18:44:57.152Z,33.40
2018-09-05T18:47:26.952Z,39.10
2018-09-05T18:49:58.515Z,33.20
2018-09-05T18:52:34.246Z,33.57
2018-09-05T18:55:15.912Z,31.50
2018-09-05T18:58:09.388Z,34.20
2018-09-05T19:01:04.004Z,33.70
2018-09-05T19:03:33.624Z,36.07
2018-09-05T19:06:06.432Z,34.63
2018-09-05T19:08:42.988Z,33.07
2018-09-05T19:11:12.577Z,35.07
2018-09-05T19:13:42.742Z,36.13
2018-09-05T19:16:22.808Z,36.10
2018-09-05T19:18:54.501Z,31.43
2018-09-05T19:21:26.060Z,31.80
2018-09-05T19:24:00.177Z,37.57
2018-09-05T19:26:32.956Z,39.07
2018-09-05T19:29:19.674Z,37.87
2018-09-05T19:31:54.608Z,36.33
2018-09-05T19:34:37.199Z,43.80
2018-09-05T19:37:06.826Z,40.83
2018-09-05T19:39:41.952Z,37.33
2018-09-05T19:42:14.779Z,38.70
2018-09-05T19:44:46.192Z,41.23
2018-09-05T19:47:19.451Z,40.30
2018-09-05T20:08:21.839Z,38.53
2018-09-05T20:10:51.610Z,40.03
2018-09-05T20:13:25.295Z,43.97
2018-09-05T20:16:01.120Z,38.53
2018-09-05T20:18:31.555Z,39.23
2018-09-05T20:21:02.015Z,42.13
2018-09-05T20:23:32.609Z,41.50
2018-09-05T20:26:02.010Z,40.37
2018-09-05T20:28:32.687Z,43.13
2018-09-05T20:31:02.275Z,41.40
2018-09-05T20:33:42.520Z,39.70
2018-09-05T20:36:17.360Z,42.23
2018-09-05T20:38:49.107Z,44.73
2018-09-05T20:41:18.780Z,41.53
2018-09-05T20:43:49.480Z,42.37
2018-09-05T20:46:21.156Z,53.50
2018-09-05T20:48:55.600Z,49.67
2018-09-05T20:51:29.388Z,43.40
2018-09-05T20:54:07.400Z,40.40
2018-09-05T20:56:39.331Z,37.23
2018-09-05T20:59:08.888Z,42.13
2018-09-05T21:01:41.668Z,44.93
2018-09-05T21:04:17.911Z,41.97
2018-09-05T21:06:58.299Z,49.83
2018-09-05T21:09:39.059Z,46.07
2018-09-05T21:12:11.544Z,43.83
2018-09-05T21:14:59.852Z,38.30
2018-09-05T21:17:40.832Z,41.47
2018-09-05T21:20:16.224Z,43.43
2018-09-05T21:22:46.944Z,45.97
2018-09-05T21:25:22.060Z,45.77
2018-09-05T21:30:59.019Z,40.03
2018-09-05T21:33:40.664Z,52.23
2018-09-05T21:36:15.116Z,45.27
2018-09-05T21:38:45.675Z,44.20
2018-09-05T21:41:17.170Z,46.30
2018-09-05T21:43:46.667Z,52.67
2018-09-05T21:46:16.163Z,44.60
2018-09-05T21:48:57.507Z,48.50
2018-09-05T21:51:39.252Z,52.90
2018-09-05T21:54:13.220Z,48.13
2018-09-05T21:56:56.951Z,46.27
2018-09-05T21:59:39.620Z,48.00
2018-09-05T22:02:16.780Z,48.50
2018-09-05T22:04:47.316Z,49.17
2018-09-05T22:07:36.638Z,48.10
2018-09-05T22:10:07.160Z,53.07
2018-09-05T22:12:36.735Z,49.23
2018-09-05T22:15:16.636Z,46.93
2018-09-05T22:17:51.995Z,49.90
2018-09-05T22:20:28.244Z,47.00
2018-09-05T22:23:02.473Z,49.30
2018-09-05T22:25:33.932Z,44.97
2018-09-05T22:28:07.941Z,50.03
2018-09-05T22:30:41.244Z,46.00
2018-09-05T22:33:18.491Z,48.10
2018-09-05T22:35:49.964Z,51.43
2018-09-05T22:38:19.464Z,49.13
2018-09-05T22:40:56.941Z,47.40
2018-09-05T22:43:40.185Z,53.87
2018-09-05T22:46:25.371Z,48.17
2018-09-05T22:49:07.876Z,52.17
2018-09-05T22:52:20.443Z,55.80
2018-09-05T22:55:19.408Z,51.80
2018-09-05T22:58:08.048Z,48.93
2018-09-05T23:00:50.537Z,57.83
2018-09-05T23:04:36.802Z,52.70
2018-09-05T23:07:45.510Z,50.47
2018-09-05T23:10:29.173Z,56.03
2018-09-05T23:13:13.101Z,60.40
2018-09-05T23:15:55.828Z,56.37
2018-09-05T23:18:37.655Z,61.93
2018-09-05T23:21:17.029Z,66.27
2018-09-05T23:23:58.611Z,57.47
2018-09-05T23:26:28.267Z,58.13
2018-09-05T23:29:11.535Z,59.30
2018-09-05T23:31:46.463Z,50.90
2018-09-05T23:34:15.975Z,48.07
2018-09-05T23:36:45.475Z,50.73
2018-09-05T23:39:20.911Z,51.77
2018-09-05T23:41:50.407Z,47.70
2018-09-05T23:44:23.513Z,50.50
2018-09-05T23:46:54.023Z,47.77
2018-09-05T23:49:24.183Z,48.70
2018-09-05T23:51:54.875Z,52.03
2018-09-05T23:54:24.379Z,50.47
2018-09-05T23:56:58.299Z,51.20
2018-09-05T23:59:28.727Z,65.83
